createdAt,value
2019-01-31T00:00:56.235Z,23.70
2019-01-31T00:01:56.197Z,23.70
2019-01-31T00:02:56.161Z,22.40
2019-01-31T00:03:56.125Z,24.30
2019-01-31T00:04:56.089Z,23.30
2019-01-31T00:05:56.052Z,22.80
2019-01-31T00:06:56.016Z,22.40
2019-01-31T00:07:55.980Z,23.20
2019-01-31T00:08:55.944Z,23.20
2019-01-31T00:09:55.908Z,23.50
2019-01-31T00:10:55.870Z,23.00
2019-01-31T00:11:55.833Z,22.40
2019-01-31T00:12:55.797Z,23.10
2019-01-31T00:13:55.760Z,23.40
2019-01-31T00:14:55.724Z,23.30
2019-01-31T00:15:55.688Z,21.90
2019-01-31T00:16:55.652Z,22.30
2019-01-31T00:17:55.616Z,24.20
2019-01-31T00:18:55.577Z,22.60
2019-01-31T00:19:55.541Z,23.20
2019-01-31T00:20:55.508Z,22.90
2019-01-31T00:21:55.467Z,23.50
2019-01-31T00:22:55.431Z,23.40
2019-01-31T00:23:55.395Z,22.40
2019-01-31T00:24:55.358Z,23.20
2019-01-31T00:25:55.322Z,23.30
2019-01-31T00:26:55.286Z,24.00
2019-01-31T00:27:55.250Z,23.30
2019-01-31T00:28:55.212Z,22.50
2019-01-31T00:29:55.179Z,24.00
2019-01-31T00:30:55.140Z,24.40
2019-01-31T00:31:55.103Z,23.20
2019-01-31T00:32:55.067Z,22.70
2019-01-31T00:33:55.031Z,22.40
2019-01-31T00:34:55.031Z,23.40
2019-01-31T00:35:54.962Z,22.50
2019-01-31T00:36:54.930Z,23.30
2019-01-31T00:37:54.883Z,24.10
2019-01-31T00:38:56.889Z,24.00
2019-01-31T00:39:54.811Z,24.20
2019-01-31T00:40:54.775Z,22.90
2019-01-31T00:41:54.736Z,23.00
2019-01-31T00:42:54.703Z,24.10
2019-01-31T00:43:54.666Z,24.10
2019-01-31T00:44:54.629Z,23.80
2019-01-31T00:45:54.594Z,23.20
2019-01-31T00:46:54.557Z,23.90
2019-01-31T00:47:54.522Z,22.50
2019-01-31T00:48:54.484Z,22.40
2019-01-31T00:49:54.447Z,23.10
2019-01-31T00:50:54.412Z,22.90
2019-01-31T00:51:54.373Z,23.00
2019-01-31T00:52:54.338Z,23.00
2019-01-31T00:53:54.300Z,22.80
2019-01-31T00:54:54.264Z,23.20
2019-01-31T00:55:54.227Z,22.00
2019-01-31T00:56:54.218Z,22.30
2019-01-31T00:57:54.155Z,22.40
2019-01-31T00:58:54.117Z,22.10
2019-01-31T00:59:54.086Z,22.80
2019-01-31T01:00:54.046Z,22.80
2019-01-31T01:01:54.008Z,22.00
2019-01-31T01:02:53.972Z,23.70
2019-01-31T01:03:53.943Z,22.30
2019-01-31T01:04:53.903Z,23.20
2019-01-31T01:05:53.862Z,23.50
2019-01-31T01:06:53.826Z,22.50
2019-01-31T01:07:53.793Z,23.40
2019-01-31T01:08:53.754Z,22.50
2019-01-31T01:09:53.718Z,22.50
2019-01-31T01:10:53.682Z,22.10
2019-01-31T01:11:53.645Z,22.40
2019-01-31T01:12:53.609Z,22.40
2019-01-31T01:13:53.571Z,21.80
2019-01-31T01:14:53.535Z,23.70
2019-01-31T01:15:53.506Z,21.90
2019-01-31T01:16:53.462Z,23.40
2019-01-31T01:17:53.426Z,21.90
2019-01-31T01:18:53.389Z,22.50
2019-01-31T01:19:53.354Z,23.10
2019-01-31T01:20:53.317Z,22.60
2019-01-31T01:21:53.281Z,22.70
2019-01-31T01:22:53.243Z,23.50
2019-01-31T01:23:53.207Z,21.50
2019-01-31T01:24:53.172Z,22.70
2019-01-31T01:25:53.138Z,23.00
2019-01-31T01:26:53.099Z,23.20
2019-01-31T01:27:53.068Z,24.00
2019-01-31T01:28:53.027Z,23.10
2019-01-31T01:29:52.989Z,22.60
2019-01-31T01:30:52.954Z,22.00
2019-01-31T01:31:52.916Z,22.40
2019-01-31T01:32:52.880Z,22.90
2019-01-31T01:33:52.843Z,22.70
2019-01-31T01:35:01.172Z,23.30
2019-01-31T01:35:52.772Z,22.40
2019-01-31T01:36:52.737Z,22.80
2019-01-31T01:37:52.698Z,22.60
2019-01-31T01:38:52.664Z,22.30
2019-01-31T01:39:52.627Z,22.10
2019-01-31T01:40:52.590Z,23.40
2019-01-31T01:41:52.554Z,22.20
2019-01-31T01:42:52.517Z,22.40
2019-01-31T01:43:52.489Z,22.20
2019-01-31T01:44:52.450Z,22.10
2019-01-31T01:45:52.412Z,22.00
2019-01-31T01:46:52.374Z,20.60
2019-01-31T01:47:52.338Z,22.10
2019-01-31T01:48:52.303Z,21.50
2019-01-31T01:49:52.264Z,21.30
2019-01-31T01:50:52.228Z,21.50
2019-01-31T01:51:52.192Z,21.00
2019-01-31T01:52:52.157Z,21.60
2019-01-31T01:53:52.120Z,20.70
2019-01-31T01:54:52.084Z,21.80
2019-01-31T01:55:52.080Z,21.10
2019-01-31T01:56:52.015Z,21.00
2019-01-31T01:57:51.976Z,20.70
2019-01-31T01:58:51.940Z,22.30
2019-01-31T01:59:51.903Z,20.60
2019-01-31T02:00:51.867Z,20.40
2019-01-31T02:01:51.831Z,21.30
2019-01-31T02:02:51.795Z,20.60
2019-01-31T02:03:51.759Z,21.40
2019-01-31T02:04:51.723Z,21.10
2019-01-31T02:05:51.686Z,20.30
2019-01-31T02:06:51.650Z,21.60
2019-01-31T02:07:51.614Z,20.30
2019-01-31T02:08:51.579Z,20.10
2019-01-31T02:09:51.542Z,19.90
2019-01-31T02:10:51.507Z,20.60
2019-01-31T02:11:51.470Z,20.50
2019-01-31T02:12:51.435Z,19.90
2019-01-31T02:13:51.397Z,20.40
2019-01-31T02:14:51.362Z,20.00
2019-01-31T02:15:51.327Z,18.50
2019-01-31T02:16:51.638Z,19.70
2019-01-31T02:17:51.255Z,19.60
2019-01-31T02:18:51.219Z,20.30
2019-01-31T02:19:51.181Z,20.60
2019-01-31T02:20:51.147Z,19.40
2019-01-31T02:21:51.115Z,18.40
2019-01-31T02:22:51.074Z,18.80
2019-01-31T02:23:51.038Z,18.20
2019-01-31T02:24:51.002Z,19.50
2019-01-31T02:25:50.966Z,18.20
2019-01-31T02:26:50.931Z,19.40
2019-01-31T02:27:50.899Z,18.90
2019-01-31T02:28:50.858Z,18.70
2019-01-31T02:29:50.821Z,18.50
2019-01-31T02:30:50.789Z,18.30
2019-01-31T02:31:50.753Z,18.30
2019-01-31T02:32:50.714Z,18.00
2019-01-31T02:33:50.679Z,18.90
2019-01-31T02:34:50.645Z,18.90
2019-01-31T02:35:50.611Z,18.40
2019-01-31T02:36:50.571Z,19.50
2019-01-31T02:37:50.536Z,18.00
2019-01-31T02:38:50.499Z,17.70
2019-01-31T02:39:50.463Z,17.70
2019-01-31T02:40:50.427Z,18.10
2019-01-31T02:41:50.391Z,18.00
2019-01-31T02:42:50.355Z,18.70
2019-01-31T02:43:50.319Z,18.20
2019-01-31T02:44:50.284Z,17.90
2019-01-31T02:45:50.250Z,18.40
2019-01-31T02:46:50.212Z,17.30
2019-01-31T02:47:50.176Z,17.70
2019-01-31T02:48:50.141Z,18.90
2019-01-31T02:49:50.104Z,17.60
2019-01-31T02:50:50.070Z,17.70
2019-01-31T02:51:50.032Z,16.70
2019-01-31T02:52:49.999Z,17.00
2019-01-31T02:53:49.962Z,17.80
2019-01-31T02:54:49.928Z,17.80
2019-01-31T02:55:49.890Z,17.70
2019-01-31T02:56:49.857Z,17.40
2019-01-31T02:57:49.818Z,16.30
2019-01-31T02:58:49.782Z,16.40
2019-01-31T02:59:49.747Z,17.50
2019-01-31T03:00:49.712Z,16.30
2019-01-31T03:01:49.674Z,17.90
2019-01-31T03:02:49.641Z,17.10
2019-01-31T03:03:49.603Z,16.10
2019-01-31T03:04:49.570Z,17.40
2019-01-31T03:05:49.532Z,17.60
2019-01-31T03:06:49.498Z,17.00
2019-01-31T03:07:49.462Z,16.60
2019-01-31T03:08:49.425Z,16.30
2019-01-31T03:09:55.012Z,17.00
2019-01-31T03:10:49.352Z,16.40
2019-01-31T03:11:49.318Z,16.40
2019-01-31T03:12:49.282Z,16.80
2019-01-31T03:13:49.244Z,16.10
2019-01-31T03:14:49.210Z,15.80
2019-01-31T03:15:49.175Z,15.90
2019-01-31T03:16:49.139Z,16.70
2019-01-31T03:17:49.102Z,16.50
2019-01-31T03:18:49.066Z,15.80
2019-01-31T03:19:49.031Z,15.80
2019-01-31T03:20:48.997Z,16.00
2019-01-31T03:21:48.961Z,15.80
2019-01-31T03:22:48.924Z,16.30
2019-01-31T03:23:48.889Z,16.00
2019-01-31T03:24:48.856Z,15.80
2019-01-31T03:25:48.816Z,15.90
2019-01-31T03:26:48.780Z,15.80
2019-01-31T03:27:48.746Z,15.80
2019-01-31T03:28:48.710Z,15.90
2019-01-31T03:29:48.673Z,16.50
2019-01-31T03:30:48.643Z,17.10
2019-01-31T03:31:48.603Z,15.30
2019-01-31T03:32:48.567Z,15.50
2019-01-31T03:33:48.530Z,16.50
2019-01-31T03:34:48.495Z,16.30
2019-01-31T03:35:48.458Z,15.90
2019-01-31T03:36:48.426Z,16.60
2019-01-31T03:37:48.387Z,16.40
2019-01-31T03:38:48.352Z,16.40
2019-01-31T03:39:48.316Z,17.00
2019-01-31T03:40:48.282Z,15.90
2019-01-31T03:41:48.245Z,16.90
2019-01-31T03:42:48.209Z,16.20
2019-01-31T03:43:48.173Z,16.60
2019-01-31T03:44:48.138Z,15.70
2019-01-31T03:45:48.100Z,16.90
2019-01-31T03:46:48.066Z,16.60
2019-01-31T03:47:48.029Z,16.60
2019-01-31T03:48:47.993Z,16.10
2019-01-31T03:49:47.958Z,17.30
2019-01-31T03:50:47.921Z,17.50
2019-01-31T03:51:47.886Z,16.50
2019-01-31T03:52:47.849Z,16.60
2019-01-31T03:53:47.815Z,16.50
2019-01-31T03:54:47.778Z,16.50
2019-01-31T03:55:47.746Z,17.20
2019-01-31T03:56:47.709Z,17.00
2019-01-31T03:57:47.671Z,17.00
2019-01-31T03:58:47.724Z,16.80
2019-01-31T03:59:47.600Z,17.00
2019-01-31T04:00:47.563Z,17.10
2019-01-31T04:01:47.528Z,17.00
2019-01-31T04:02:47.491Z,17.30
2019-01-31T04:03:47.456Z,17.50
2019-01-31T04:04:47.421Z,17.50
2019-01-31T04:05:47.384Z,17.40
2019-01-31T04:06:47.352Z,17.10
2019-01-31T04:07:47.313Z,16.90
2019-01-31T04:08:47.278Z,18.00
2019-01-31T04:09:47.241Z,16.70
2019-01-31T04:10:47.205Z,16.80
2019-01-31T04:11:47.170Z,17.90
2019-01-31T04:12:47.137Z,17.30
2019-01-31T04:13:47.099Z,17.40
2019-01-31T04:14:47.063Z,16.80
2019-01-31T04:15:47.026Z,17.80
2019-01-31T04:16:46.996Z,17.10
2019-01-31T04:17:46.970Z,16.60
2019-01-31T04:18:46.923Z,17.30
2019-01-31T04:19:46.884Z,18.50
2019-01-31T04:20:46.850Z,18.50
2019-01-31T04:21:46.812Z,18.00
2019-01-31T04:22:46.776Z,18.40
2019-01-31T04:23:46.739Z,17.00
2019-01-31T04:24:46.703Z,18.20
2019-01-31T04:25:46.668Z,18.00
2019-01-31T04:26:46.631Z,17.80
2019-01-31T04:27:46.597Z,18.30
2019-01-31T04:28:46.562Z,18.20
2019-01-31T04:29:46.524Z,18.20
2019-01-31T04:30:46.488Z,18.00
2019-01-31T04:31:46.452Z,16.70
2019-01-31T04:32:46.430Z,17.80
2019-01-31T04:33:46.380Z,17.80
2019-01-31T04:34:46.377Z,17.80
2019-01-31T04:35:46.315Z,17.40
2019-01-31T04:36:46.273Z,18.40
2019-01-31T04:37:46.237Z,17.60
2019-01-31T04:38:46.202Z,17.40
2019-01-31T04:39:46.165Z,18.10
2019-01-31T04:40:46.145Z,17.60
2019-01-31T04:41:46.094Z,18.10
2019-01-31T04:42:46.058Z,17.50
2019-01-31T04:43:46.021Z,17.70
2019-01-31T04:44:45.985Z,17.30
2019-01-31T04:45:45.948Z,17.10
2019-01-31T04:46:45.914Z,16.60
2019-01-31T04:47:45.878Z,18.50
2019-01-31T04:48:45.843Z,18.00
2019-01-31T04:49:45.818Z,17.80
2019-01-31T04:50:45.768Z,17.60
2019-01-31T04:51:45.732Z,17.90
2019-01-31T04:52:45.697Z,17.50
2019-01-31T04:53:45.661Z,17.80
2019-01-31T04:54:45.624Z,18.40
2019-01-31T04:55:45.587Z,19.20
2019-01-31T04:56:45.553Z,18.10
2019-01-31T04:57:45.515Z,17.00
2019-01-31T04:58:45.480Z,18.10
2019-01-31T04:59:45.443Z,17.30
2019-01-31T05:00:45.407Z,23.40
2019-01-31T05:01:45.372Z,16.80
2019-01-31T05:02:45.335Z,17.30
2019-01-31T05:03:45.446Z,16.20
2019-01-31T05:04:45.261Z,16.60
2019-01-31T05:05:45.225Z,20.40
2019-01-31T05:06:45.190Z,21.70
2019-01-31T05:07:45.153Z,19.30
2019-01-31T05:08:45.117Z,17.20
2019-01-31T05:09:45.079Z,18.80
2019-01-31T05:10:45.060Z,17.70
2019-01-31T05:11:45.008Z,18.40
2019-01-31T05:12:44.972Z,17.70
2019-01-31T05:13:44.935Z,18.00
2019-01-31T05:14:44.896Z,19.50
2019-01-31T05:15:44.860Z,20.20
2019-01-31T05:16:44.824Z,22.00
2019-01-31T05:17:44.808Z,20.30
2019-01-31T05:18:44.749Z,26.40
2019-01-31T05:19:44.716Z,20.40
2019-01-31T05:20:44.675Z,23.80
2019-01-31T05:21:44.637Z,21.40
2019-01-31T05:22:44.600Z,20.50
2019-01-31T05:23:44.568Z,20.40
2019-01-31T05:24:44.535Z,21.70
2019-01-31T05:25:44.489Z,20.40
2019-01-31T05:26:44.453Z,20.50
2019-01-31T05:27:44.415Z,21.60
2019-01-31T05:28:44.382Z,20.20
2019-01-31T05:29:44.343Z,20.40
2019-01-31T05:30:44.304Z,20.00
2019-01-31T05:31:44.269Z,20.10
2019-01-31T05:32:44.231Z,19.40
2019-01-31T05:33:44.193Z,20.60
2019-01-31T05:34:44.155Z,21.10
2019-01-31T05:35:44.118Z,22.30
2019-01-31T05:36:44.082Z,21.60
2019-01-31T05:37:44.043Z,21.50
2019-01-31T05:38:44.007Z,20.70
2019-01-31T05:39:43.969Z,19.90
2019-01-31T05:40:54.409Z,20.80
2019-01-31T05:41:44.020Z,22.10
2019-01-31T05:42:43.859Z,20.30
2019-01-31T05:43:43.820Z,20.70
2019-01-31T05:44:43.782Z,21.60
2019-01-31T05:45:43.744Z,22.30
2019-01-31T05:46:43.708Z,21.60
2019-01-31T05:47:43.671Z,21.60
2019-01-31T05:48:43.634Z,21.50
2019-01-31T05:49:43.744Z,21.40
2019-01-31T05:50:43.558Z,22.40
2019-01-31T05:51:43.520Z,21.70
2019-01-31T05:52:43.484Z,22.50
2019-01-31T05:53:43.448Z,22.10
2019-01-31T05:54:43.410Z,22.30
2019-01-31T05:55:43.370Z,20.70
2019-01-31T05:56:43.334Z,21.50
2019-01-31T05:57:43.296Z,21.50
2019-01-31T05:58:43.258Z,21.60
2019-01-31T05:59:43.230Z,21.90
2019-01-31T06:00:43.184Z,23.10
2019-01-31T06:01:43.146Z,22.40
2019-01-31T06:02:43.107Z,21.40
2019-01-31T06:03:43.070Z,21.20
2019-01-31T06:04:43.034Z,22.40
2019-01-31T06:05:42.997Z,22.40
2019-01-31T06:06:42.957Z,23.90
2019-01-31T06:07:42.922Z,22.60
2019-01-31T06:08:42.885Z,20.90
2019-01-31T06:09:42.845Z,23.60
2019-01-31T06:10:42.810Z,22.60
2019-01-31T06:11:42.772Z,21.30
2019-01-31T06:12:42.734Z,23.20
2019-01-31T06:13:42.696Z,22.70
2019-01-31T06:14:42.659Z,21.10
2019-01-31T06:15:42.628Z,21.40
2019-01-31T06:16:42.588Z,21.20
2019-01-31T06:17:42.549Z,21.50
2019-01-31T06:18:42.514Z,22.50
2019-01-31T06:19:42.474Z,21.20
2019-01-31T06:20:42.438Z,22.60
2019-01-31T06:21:42.399Z,21.50
2019-01-31T06:22:42.363Z,21.60
2019-01-31T06:23:42.326Z,23.80
2019-01-31T06:24:42.290Z,22.80
2019-01-31T06:25:42.406Z,23.10
2019-01-31T06:26:42.213Z,22.40
2019-01-31T06:27:42.178Z,22.30
2019-01-31T06:28:42.142Z,21.50
2019-01-31T06:29:42.103Z,21.60
2019-01-31T06:30:42.067Z,21.60
2019-01-31T06:31:42.032Z,20.70
2019-01-31T06:32:41.993Z,22.90
2019-01-31T06:33:41.957Z,24.60
2019-01-31T06:34:41.918Z,23.40
2019-01-31T06:35:41.882Z,22.80
2019-01-31T06:36:41.845Z,21.10
2019-01-31T06:37:41.808Z,22.70
2019-01-31T06:38:41.771Z,22.80
2019-01-31T06:39:41.738Z,21.70
2019-01-31T06:40:41.699Z,22.00
2019-01-31T06:41:41.659Z,23.20
2019-01-31T06:42:41.623Z,24.80
2019-01-31T06:43:41.586Z,26.10
2019-01-31T06:44:41.550Z,24.40
2019-01-31T06:45:41.512Z,23.70
2019-01-31T06:46:41.476Z,22.40
2019-01-31T06:47:41.439Z,23.00
2019-01-31T06:48:41.403Z,21.30
2019-01-31T06:49:41.366Z,21.80
2019-01-31T06:50:41.328Z,22.50
2019-01-31T06:51:41.293Z,22.90
2019-01-31T06:52:41.255Z,23.00
2019-01-31T06:53:41.217Z,22.80
2019-01-31T06:54:41.181Z,21.60
2019-01-31T06:55:41.146Z,22.60
2019-01-31T06:56:41.108Z,21.50
2019-01-31T06:57:41.071Z,21.40
2019-01-31T06:58:41.334Z,22.30
2019-01-31T06:59:40.997Z,21.20
2019-01-31T07:00:40.961Z,20.90
2019-01-31T07:01:40.924Z,21.00
2019-01-31T07:02:40.888Z,22.30
2019-01-31T07:03:40.852Z,23.70
2019-01-31T07:04:40.816Z,23.70
2019-01-31T07:05:40.777Z,24.60
2019-01-31T07:06:40.741Z,24.10
2019-01-31T07:07:40.704Z,23.40
2019-01-31T07:08:40.669Z,24.90
2019-01-31T07:09:40.637Z,22.90
2019-01-31T07:10:40.593Z,22.90
2019-01-31T07:11:40.561Z,21.60
2019-01-31T07:12:40.521Z,21.50
2019-01-31T07:13:40.484Z,20.00
2019-01-31T07:14:40.447Z,20.70
2019-01-31T07:15:40.415Z,21.10
2019-01-31T07:16:40.376Z,21.00
2019-01-31T07:17:40.336Z,22.10
2019-01-31T07:18:40.300Z,22.40
2019-01-31T07:19:40.266Z,21.50
2019-01-31T07:20:40.228Z,22.00
2019-01-31T07:21:40.192Z,22.50
2019-01-31T07:22:40.154Z,23.50
2019-01-31T07:23:40.119Z,23.80
2019-01-31T07:24:40.082Z,23.10
2019-01-31T07:25:40.046Z,22.80
2019-01-31T07:26:41.502Z,21.00
2019-01-31T07:27:39.971Z,21.60
2019-01-31T07:28:39.936Z,23.10
2019-01-31T07:29:39.899Z,22.90
2019-01-31T07:30:39.863Z,21.70
2019-01-31T07:31:39.826Z,21.20
2019-01-31T07:32:39.792Z,20.90
2019-01-31T07:33:39.753Z,20.50
2019-01-31T07:34:39.718Z,20.90
2019-01-31T07:35:39.684Z,19.80
2019-01-31T07:36:39.656Z,20.70
2019-01-31T07:37:39.610Z,21.30
2019-01-31T07:38:39.572Z,20.70
2019-01-31T07:39:39.535Z,20.40
2019-01-31T07:40:39.498Z,20.70
2019-01-31T07:41:41.467Z,20.80
2019-01-31T07:42:39.427Z,21.20
2019-01-31T07:43:39.390Z,21.20
2019-01-31T07:44:39.353Z,22.90
2019-01-31T07:45:39.316Z,21.10
2019-01-31T07:46:39.280Z,22.10
2019-01-31T07:47:39.245Z,20.10
2019-01-31T07:48:39.209Z,21.30
2019-01-31T07:49:39.173Z,21.30
2019-01-31T07:50:39.136Z,21.90
2019-01-31T07:51:39.099Z,22.20
2019-01-31T07:52:39.064Z,22.00
2019-01-31T07:53:39.026Z,21.20
2019-01-31T07:54:38.991Z,20.30
2019-01-31T07:55:38.954Z,20.90
2019-01-31T07:56:38.918Z,19.80
2019-01-31T07:57:38.882Z,20.20
2019-01-31T07:58:38.845Z,20.20
2019-01-31T07:59:38.809Z,19.60
2019-01-31T08:00:38.772Z,19.70
2019-01-31T08:01:40.778Z,19.60
2019-01-31T08:02:38.700Z,20.10
2019-01-31T08:03:40.720Z,19.40
2019-01-31T08:04:38.629Z,20.00
2019-01-31T08:05:38.593Z,19.80
2019-01-31T08:06:38.556Z,19.20
2019-01-31T08:07:38.520Z,18.90
2019-01-31T08:08:38.485Z,20.10
2019-01-31T08:09:38.449Z,18.90
2019-01-31T08:10:38.411Z,20.20
2019-01-31T08:11:38.375Z,20.00
2019-01-31T08:12:38.341Z,19.20
2019-01-31T08:13:38.302Z,19.40
2019-01-31T08:14:38.266Z,19.40
2019-01-31T08:15:38.230Z,19.50
2019-01-31T08:16:38.194Z,19.90
2019-01-31T08:17:38.157Z,20.00
2019-01-31T08:18:38.122Z,20.30
2019-01-31T08:19:38.085Z,19.70
2019-01-31T08:20:38.050Z,20.10
2019-01-31T08:21:40.937Z,20.20
2019-01-31T08:22:37.978Z,19.10
2019-01-31T08:23:37.941Z,18.20
2019-01-31T08:24:37.910Z,17.80
2019-01-31T08:25:37.870Z,19.20
2019-01-31T08:26:37.835Z,19.10
2019-01-31T08:27:37.799Z,19.50
2019-01-31T08:28:37.763Z,19.20
2019-01-31T08:29:37.726Z,18.70
2019-01-31T08:30:38.011Z,18.90
2019-01-31T08:31:37.656Z,18.70
2019-01-31T08:32:37.619Z,18.60
2019-01-31T08:33:37.584Z,19.10
2019-01-31T08:34:37.547Z,18.10
2019-01-31T08:35:37.511Z,18.80
2019-01-31T08:36:37.476Z,19.80
2019-01-31T08:37:37.440Z,18.20
2019-01-31T08:38:37.407Z,18.30
2019-01-31T08:39:37.369Z,17.60
2019-01-31T08:40:37.335Z,17.10
2019-01-31T08:41:37.297Z,17.60
2019-01-31T08:42:37.262Z,18.70
2019-01-31T08:43:37.227Z,17.40
2019-01-31T08:44:37.192Z,18.30
2019-01-31T08:45:37.155Z,18.40
2019-01-31T08:46:37.121Z,18.70
2019-01-31T08:47:37.085Z,18.00
2019-01-31T08:48:37.049Z,17.90
2019-01-31T08:49:37.012Z,17.60
2019-01-31T08:50:36.976Z,17.10
2019-01-31T08:51:36.942Z,17.00
2019-01-31T08:52:36.906Z,18.30
2019-01-31T08:53:36.870Z,18.00
2019-01-31T08:54:36.835Z,17.20
2019-01-31T08:55:36.799Z,16.80
2019-01-31T08:56:36.765Z,16.90
2019-01-31T08:57:36.728Z,16.90
2019-01-31T08:58:36.693Z,17.40
2019-01-31T08:59:36.657Z,17.50
2019-01-31T09:00:36.624Z,17.30
2019-01-31T09:01:36.587Z,16.30
2019-01-31T09:02:36.551Z,17.20
2019-01-31T09:03:36.517Z,16.50
2019-01-31T09:04:36.482Z,16.80
2019-01-31T09:05:36.445Z,16.40
2019-01-31T09:06:36.410Z,16.40
2019-01-31T09:07:36.376Z,17.00
2019-01-31T09:08:36.341Z,16.10
2019-01-31T09:09:36.305Z,16.30
2019-01-31T09:10:36.270Z,17.10
2019-01-31T09:11:36.236Z,17.10
2019-01-31T09:12:36.199Z,15.20
2019-01-31T09:13:38.101Z,16.80
2019-01-31T09:14:36.129Z,16.40
2019-01-31T09:15:36.096Z,16.80
2019-01-31T09:16:36.059Z,15.90
2019-01-31T09:17:36.023Z,16.20
2019-01-31T09:18:35.988Z,16.20
2019-01-31T09:19:35.952Z,16.00
2019-01-31T09:20:35.919Z,16.00
2019-01-31T09:21:35.884Z,16.40
2019-01-31T09:22:35.848Z,15.20
2019-01-31T09:23:35.812Z,16.90
2019-01-31T09:24:35.778Z,15.60
2019-01-31T09:25:35.743Z,15.70
2019-01-31T09:26:35.707Z,15.50
2019-01-31T09:27:35.672Z,15.00
2019-01-31T09:28:35.638Z,14.20
2019-01-31T09:29:35.603Z,15.80
2019-01-31T09:30:35.568Z,14.50
2019-01-31T09:31:35.535Z,14.80
2019-01-31T09:32:35.499Z,15.00
2019-01-31T09:33:35.461Z,14.70
2019-01-31T09:34:35.427Z,15.10
2019-01-31T09:35:35.392Z,15.20
2019-01-31T09:36:35.360Z,14.90
2019-01-31T09:37:35.323Z,15.00
2019-01-31T09:38:35.288Z,14.90
2019-01-31T09:39:35.253Z,13.90
2019-01-31T09:40:35.218Z,14.50
2019-01-31T09:41:35.184Z,14.80
2019-01-31T09:42:35.148Z,14.70
2019-01-31T09:43:35.115Z,14.00
2019-01-31T09:44:35.081Z,14.50
2019-01-31T09:45:35.044Z,13.50
2019-01-31T09:46:35.009Z,13.50
2019-01-31T09:47:34.977Z,14.20
2019-01-31T09:48:34.939Z,14.20
2019-01-31T09:49:34.904Z,13.90
2019-01-31T09:50:34.871Z,13.60
2019-01-31T09:51:34.835Z,14.20
2019-01-31T09:52:34.801Z,13.50
2019-01-31T09:53:34.767Z,14.70
2019-01-31T09:54:34.731Z,12.70
2019-01-31T09:55:34.696Z,15.70
2019-01-31T09:56:34.974Z,18.10
2019-01-31T09:57:34.626Z,13.90
2019-01-31T09:58:34.592Z,14.40
2019-01-31T09:59:34.558Z,14.50
2019-01-31T10:00:34.527Z,14.70
2019-01-31T10:01:34.489Z,14.30
2019-01-31T10:02:34.454Z,13.50
2019-01-31T10:03:34.956Z,12.80
2019-01-31T10:04:34.385Z,13.00
2019-01-31T10:05:34.350Z,13.40
2019-01-31T10:06:34.316Z,13.40
2019-01-31T10:07:34.283Z,13.60
2019-01-31T10:08:34.250Z,13.30
2019-01-31T10:09:34.215Z,14.20
2019-01-31T10:10:34.246Z,13.60
2019-01-31T10:11:34.180Z,13.10
2019-01-31T10:12:38.260Z,13.60
2019-01-31T10:13:34.097Z,13.50
2019-01-31T10:14:34.052Z,13.50
2019-01-31T10:15:34.041Z,13.50
2019-01-31T10:16:34.009Z,13.00
2019-01-31T10:17:33.988Z,13.20
2019-01-31T10:18:33.911Z,13.30
2019-01-31T10:19:33.953Z,12.10
2019-01-31T10:20:33.891Z,12.40
2019-01-31T10:21:33.869Z,12.70
2019-01-31T10:22:33.857Z,13.00
2019-01-31T10:23:33.766Z,10.90
2019-01-31T10:24:33.708Z,11.40
2019-01-31T10:25:35.742Z,12.30
2019-01-31T10:26:33.640Z,10.00
2019-01-31T10:27:33.608Z,10.90
2019-01-31T10:28:33.576Z,10.10
2019-01-31T10:29:33.539Z,10.60
2019-01-31T10:30:33.509Z,10.80
2019-01-31T10:31:33.474Z,11.20
2019-01-31T10:32:33.442Z,10.30
2019-01-31T10:33:33.405Z,11.30
2019-01-31T10:34:33.374Z,10.20
2019-01-31T10:35:33.342Z,10.20
2019-01-31T10:36:33.308Z,8.00
2019-01-31T10:37:33.271Z,7.70
2019-01-31T10:38:33.239Z,7.80
2019-01-31T10:39:35.548Z,7.80
2019-01-31T10:40:33.175Z,7.80
2019-01-31T10:41:33.138Z,8.70
2019-01-31T10:42:33.106Z,8.00
2019-01-31T10:43:33.072Z,8.80
2019-01-31T10:44:33.038Z,8.70
2019-01-31T10:45:33.004Z,7.70
2019-01-31T10:46:32.969Z,7.40
2019-01-31T10:47:32.935Z,8.30
2019-01-31T10:48:32.903Z,7.60
2019-01-31T10:49:32.869Z,7.50
2019-01-31T10:50:32.835Z,7.30
2019-01-31T10:51:32.802Z,7.70
2019-01-31T10:52:32.772Z,7.50
2019-01-31T10:53:32.742Z,7.00
2019-01-31T10:54:32.702Z,6.40
2019-01-31T10:55:32.671Z,5.70
2019-01-31T10:56:32.637Z,6.40
2019-01-31T10:57:32.602Z,5.60
2019-01-31T10:58:32.568Z,7.00
2019-01-31T10:59:32.535Z,6.50
2019-01-31T11:00:32.503Z,6.10
2019-01-31T11:01:32.467Z,5.30
2019-01-31T11:02:32.436Z,4.70
2019-01-31T11:03:32.404Z,5.10
2019-01-31T11:04:32.372Z,4.80
2019-01-31T11:05:32.337Z,4.80
2019-01-31T11:06:32.305Z,5.00
2019-01-31T11:07:32.272Z,5.30
2019-01-31T11:08:32.240Z,5.10
2019-01-31T11:09:32.206Z,4.90
2019-01-31T11:10:32.173Z,4.80
2019-01-31T11:11:32.141Z,4.80
2019-01-31T11:12:32.111Z,4.70
2019-01-31T11:13:32.073Z,4.60
2019-01-31T11:14:32.040Z,4.90
2019-01-31T11:15:32.013Z,4.10
2019-01-31T11:16:31.976Z,4.40
2019-01-31T11:17:31.939Z,4.70
2019-01-31T11:18:31.905Z,4.80
2019-01-31T11:19:31.873Z,4.90
2019-01-31T11:20:31.839Z,6.10
2019-01-31T11:21:31.805Z,5.40
2019-01-31T11:22:31.772Z,5.10
2019-01-31T11:23:31.738Z,5.00
2019-01-31T11:24:31.706Z,4.60
2019-01-31T11:25:31.670Z,5.40
2019-01-31T11:26:31.637Z,5.00
2019-01-31T11:27:31.604Z,4.80
2019-01-31T11:28:31.571Z,5.00
2019-01-31T11:29:31.537Z,5.00
2019-01-31T11:30:31.502Z,5.00
2019-01-31T11:31:31.470Z,5.60
2019-01-31T11:32:31.435Z,4.90
2019-01-31T11:33:31.403Z,5.00
2019-01-31T11:34:33.119Z,5.40
2019-01-31T11:35:31.335Z,4.50
2019-01-31T11:36:31.304Z,5.90
2019-01-31T11:37:31.268Z,5.20
2019-01-31T11:38:31.235Z,4.90
2019-01-31T11:39:31.205Z,4.50
2019-01-31T11:40:31.172Z,4.70
2019-01-31T11:41:31.139Z,4.30
2019-01-31T11:42:31.106Z,4.70
2019-01-31T11:43:31.184Z,5.30
2019-01-31T11:44:31.042Z,3.90
2019-01-31T11:45:31.006Z,4.40
2019-01-31T11:46:30.974Z,3.70
2019-01-31T11:47:30.942Z,3.80
2019-01-31T11:48:30.908Z,3.80
2019-01-31T11:49:30.874Z,3.90
2019-01-31T11:50:30.842Z,4.00
2019-01-31T11:51:30.809Z,3.80
2019-01-31T11:52:30.777Z,3.80
2019-01-31T11:53:30.742Z,3.60
2019-01-31T11:54:30.712Z,3.80
2019-01-31T11:55:30.677Z,4.00
2019-01-31T11:56:30.648Z,4.00
2019-01-31T11:57:30.611Z,4.20
2019-01-31T11:58:30.595Z,3.90
2019-01-31T11:59:30.546Z,3.80
2019-01-31T12:00:30.763Z,3.80
2019-01-31T12:01:30.480Z,4.20
2019-01-31T12:02:30.450Z,3.80
2019-01-31T12:03:30.418Z,4.10
2019-01-31T12:04:30.383Z,3.60
2019-01-31T12:05:30.348Z,4.00
2019-01-31T12:06:30.315Z,3.80
2019-01-31T12:07:30.283Z,3.40
2019-01-31T12:08:30.251Z,3.60
2019-01-31T12:09:30.217Z,4.20
2019-01-31T12:10:30.182Z,4.00
2019-01-31T12:11:30.154Z,3.80
2019-01-31T12:12:30.119Z,3.60
2019-01-31T12:13:30.086Z,4.20
2019-01-31T12:14:30.052Z,4.10
2019-01-31T12:15:30.017Z,3.80
2019-01-31T12:16:29.984Z,4.20
2019-01-31T12:17:29.951Z,4.00
2019-01-31T12:18:29.918Z,4.40
2019-01-31T12:19:29.885Z,5.30
2019-01-31T12:20:29.851Z,8.40
2019-01-31T12:21:29.816Z,6.00
2019-01-31T12:22:29.782Z,5.10
2019-01-31T12:23:32.264Z,12.50
2019-01-31T12:24:29.716Z,15.90
2019-01-31T12:25:29.682Z,6.40
2019-01-31T12:26:29.648Z,9.80
2019-01-31T12:27:29.615Z,6.40
2019-01-31T12:28:29.582Z,6.00
2019-01-31T12:29:29.548Z,7.00
2019-01-31T12:30:29.517Z,7.90
2019-01-31T12:31:29.481Z,5.00
2019-01-31T12:32:29.452Z,3.50
2019-01-31T12:33:31.020Z,4.70
2019-01-31T12:34:29.382Z,5.20
2019-01-31T12:35:29.350Z,3.50
2019-01-31T12:36:29.316Z,4.60
2019-01-31T12:37:29.281Z,3.70
2019-01-31T12:38:36.541Z,3.10
2019-01-31T12:39:29.214Z,3.70
2019-01-31T12:40:29.183Z,3.50
2019-01-31T12:41:29.298Z,3.90
2019-01-31T12:42:29.114Z,3.80
2019-01-31T12:43:35.164Z,4.50
2019-01-31T12:44:29.049Z,3.50
2019-01-31T12:45:29.014Z,3.60
2019-01-31T12:46:28.984Z,3.50
2019-01-31T12:47:28.951Z,4.50
2019-01-31T12:48:28.915Z,4.00
2019-01-31T12:49:28.880Z,4.00
2019-01-31T12:50:28.847Z,4.20
2019-01-31T12:51:28.814Z,3.60
2019-01-31T12:52:28.779Z,3.80
2019-01-31T12:53:28.746Z,3.80
2019-01-31T12:54:28.714Z,4.00
2019-01-31T12:55:28.678Z,3.40
2019-01-31T12:56:28.646Z,3.50
2019-01-31T12:57:28.611Z,3.90